createdAt,value
2022-12-23T00:02:31.252Z,2.90
2022-12-23T00:05:03.856Z,2.90
2022-12-23T00:07:36.489Z,2.90
2022-12-23T00:10:11.050Z,2.90
2022-12-23T00:13:01.025Z,2.94
2022-12-23T00:15:33.623Z,2.99
2022-12-23T00:18:06.273Z,3.03
2022-12-23T00:20:41.699Z,3.09
2022-12-23T00:23:14.214Z,3.13
2022-12-23T00:25:46.954Z,3.16
2022-12-23T00:28:21.259Z,3.17
2022-12-23T00:30:55.407Z,3.16
2022-12-23T00:33:29.220Z,3.16
2022-12-23T00:36:04.226Z,3.15
2022-12-23T00:38:54.281Z,3.14
2022-12-23T00:41:44.317Z,3.13
2022-12-23T00:44:16.831Z,3.15
2022-12-23T00:46:49.397Z,3.17
2022-12-23T00:49:40.205Z,3.19
2022-12-23T00:52:16.769Z,3.22
2022-12-23T00:54:49.212Z,3.23
2022-12-23T00:57:21.718Z,3.25
2022-12-23T00:59:54.293Z,3.27
2022-12-23T01:02:44.092Z,3.28
2022-12-23T01:05:36.268Z,3.31
2022-12-23T01:08:11.357Z,3.32
2022-12-23T01:10:43.839Z,3.32
2022-12-23T01:13:16.346Z,3.31
2022-12-23T01:15:49.197Z,3.27
2022-12-23T01:18:23.588Z,3.23
2022-12-23T01:20:56.201Z,3.21
2022-12-23T01:23:28.803Z,3.19
2022-12-23T01:26:03.690Z,3.19
2022-12-23T01:28:37.226Z,3.20
2022-12-23T01:31:12.854Z,3.22
2022-12-23T01:33:46.103Z,3.24
2022-12-23T01:36:19.458Z,3.27
2022-12-23T01:38:52.281Z,3.29
2022-12-23T01:41:44.979Z,3.31
2022-12-23T01:44:51.664Z,3.34
2022-12-23T01:47:28.428Z,3.34
2022-12-23T01:50:07.648Z,3.29
2022-12-23T01:52:46.038Z,3.25
2022-12-23T01:55:20.274Z,3.21
2022-12-23T01:57:53.757Z,3.16
2022-12-23T02:00:44.066Z,3.15
2022-12-23T02:03:33.956Z,3.16
2022-12-23T02:06:21.337Z,3.17
2022-12-23T02:09:11.030Z,3.21
2022-12-23T02:12:15.796Z,3.26
2022-12-23T02:15:37.147Z,3.30
2022-12-23T02:18:32.471Z,3.31
2022-12-23T02:21:29.203Z,3.27
2022-12-23T02:24:27.785Z,3.22
2022-12-23T02:27:20.297Z,3.17
2022-12-23T02:30:28.170Z,3.15
2022-12-23T02:33:31.559Z,3.15
2022-12-23T02:36:17.641Z,3.16
2022-12-23T02:38:57.966Z,3.19
2022-12-23T02:41:38.208Z,3.23
2022-12-23T02:44:20.214Z,3.28
2022-12-23T02:46:56.983Z,3.31
2022-12-23T02:49:34.866Z,3.30
2022-12-23T02:52:15.688Z,3.30
2022-12-23T02:54:53.113Z,3.28
2022-12-23T02:57:30.794Z,3.24
2022-12-23T03:00:05.189Z,3.19
2022-12-23T03:02:41.169Z,3.18
2022-12-23T03:05:29.324Z,3.18
2022-12-23T03:08:05.355Z,3.19
2022-12-23T03:10:46.363Z,3.21
2022-12-23T03:13:30.415Z,3.24
2022-12-23T03:16:16.155Z,3.27
2022-12-23T03:19:02.579Z,3.27
2022-12-23T03:21:42.680Z,3.24
2022-12-23T03:24:23.388Z,3.21
2022-12-23T03:27:04.692Z,3.18
2022-12-23T03:29:44.111Z,3.18
2022-12-23T03:32:18.377Z,3.19
2022-12-23T03:34:53.622Z,3.21
2022-12-23T03:37:29.182Z,3.25
2022-12-23T03:40:06.124Z,3.28
2022-12-23T03:42:41.296Z,3.31
2022-12-23T03:48:17.371Z,3.31
2022-12-23T03:50:54.126Z,3.29
2022-12-23T03:53:31.047Z,3.26
2022-12-23T03:56:07.969Z,3.22
2022-12-23T03:58:44.418Z,3.22
2022-12-23T04:01:27.273Z,3.25
2022-12-23T04:04:08.118Z,3.27
2022-12-23T04:06:46.775Z,3.32
2022-12-23T04:09:22.357Z,3.35
2022-12-23T04:11:56.372Z,3.39
2022-12-23T04:14:28.856Z,3.41
2022-12-23T04:17:01.676Z,3.42
2022-12-23T04:19:34.196Z,3.41
2022-12-23T04:22:06.743Z,3.38
2022-12-23T04:24:39.357Z,3.32
2022-12-23T04:27:14.846Z,3.28
2022-12-23T04:29:47.971Z,3.27
2022-12-23T04:32:20.449Z,3.29
2022-12-23T04:34:53.023Z,3.30
2022-12-23T04:37:28.236Z,3.33
2022-12-23T04:40:00.718Z,3.37
2022-12-23T04:42:33.371Z,3.41
2022-12-23T04:45:09.847Z,3.43
2022-12-23T04:47:42.376Z,3.43
2022-12-23T04:50:17.199Z,3.43
2022-12-23T04:52:49.705Z,3.42
2022-12-23T04:55:22.225Z,3.39
2022-12-23T04:57:54.774Z,3.35
2022-12-23T05:00:27.448Z,3.31
2022-12-23T05:03:00.226Z,3.29
2022-12-23T05:05:32.976Z,3.28
2022-12-23T05:08:07.777Z,3.28
2022-12-23T05:10:40.325Z,3.30
2022-12-23T05:13:12.909Z,3.31
2022-12-23T05:15:46.717Z,3.33
2022-12-23T05:18:19.502Z,3.35
2022-12-23T05:20:52.677Z,3.35
2022-12-23T05:23:25.197Z,3.34
2022-12-23T05:25:58.023Z,3.34
2022-12-23T05:28:30.633Z,3.34
2022-12-23T05:31:06.417Z,3.32
2022-12-23T05:33:39.145Z,3.29
2022-12-23T05:36:12.719Z,3.25
2022-12-23T05:38:45.216Z,3.21
2022-12-23T05:41:18.552Z,3.19
2022-12-23T05:43:51.227Z,3.18
2022-12-23T05:46:26.786Z,3.18
2022-12-23T05:48:59.697Z,3.18
2022-12-23T05:51:32.197Z,3.21
2022-12-23T05:54:04.727Z,3.25
2022-12-23T05:56:37.798Z,3.28
2022-12-23T05:59:10.458Z,3.29
2022-12-23T06:01:43.017Z,3.31
2022-12-23T06:04:15.634Z,3.35
2022-12-23T06:06:48.144Z,3.35
2022-12-23T06:09:20.583Z,3.38
2022-12-23T06:11:53.261Z,3.40
2022-12-23T06:14:29.064Z,3.40
2022-12-23T06:17:02.033Z,3.36
2022-12-23T06:19:34.481Z,3.32
2022-12-23T06:22:07.986Z,3.27
2022-12-23T06:24:41.081Z,3.24
2022-12-23T06:27:13.798Z,3.21
2022-12-23T06:29:46.503Z,3.21
2022-12-23T06:32:19.049Z,3.21
2022-12-23T06:34:53.421Z,3.22
2022-12-23T06:37:25.934Z,3.23
2022-12-23T06:39:58.535Z,3.24
2022-12-23T06:42:31.237Z,3.28
2022-12-23T06:45:03.725Z,3.31
2022-12-23T06:47:36.233Z,3.34
2022-12-23T06:50:10.332Z,3.36
2022-12-23T06:52:42.802Z,3.41
2022-12-23T06:55:15.496Z,3.45
2022-12-23T06:57:47.923Z,3.51
2022-12-23T07:00:22.737Z,3.56
2022-12-23T07:02:56.149Z,3.61
2022-12-23T07:05:36.457Z,3.66
2022-12-23T07:08:09.855Z,3.72
2022-12-23T07:10:42.443Z,3.75
2022-12-23T07:13:15.227Z,3.77
2022-12-23T07:15:47.769Z,3.80
2022-12-23T07:18:20.246Z,3.81
2022-12-23T07:20:53.238Z,3.83
2022-12-23T07:23:25.687Z,3.84
2022-12-23T07:25:58.556Z,3.89
2022-12-23T07:28:31.081Z,3.94
2022-12-23T07:31:06.341Z,4.00
2022-12-23T07:33:38.861Z,4.09
2022-12-23T07:36:12.095Z,4.17
2022-12-23T07:38:44.917Z,4.25
2022-12-23T07:41:17.402Z,4.30
2022-12-23T07:43:50.054Z,4.34
2022-12-23T07:46:22.639Z,4.36
2022-12-23T07:48:55.404Z,4.38
2022-12-23T07:51:28.306Z,4.42
2022-12-23T07:54:00.914Z,4.45
2022-12-23T07:56:33.409Z,4.50
2022-12-23T07:59:05.881Z,4.52
2022-12-23T08:01:38.717Z,4.57
2022-12-23T08:04:11.457Z,4.63
2022-12-23T08:06:43.933Z,4.69
2022-12-23T08:09:19.335Z,4.78
2022-12-23T08:11:51.927Z,4.83
2022-12-23T08:14:24.539Z,4.85
2022-12-23T08:16:59.212Z,4.89
2022-12-23T08:19:31.736Z,4.93
2022-12-23T08:22:04.263Z,4.96
2022-12-23T08:24:36.733Z,4.96
2022-12-23T08:27:09.205Z,4.96
2022-12-23T08:29:42.005Z,5.00
2022-12-23T08:32:14.666Z,5.05
2022-12-23T08:34:47.139Z,5.12
2022-12-23T08:37:19.820Z,5.17
2022-12-23T08:39:52.332Z,5.22
2022-12-23T08:42:26.102Z,5.32
2022-12-23T08:44:58.856Z,5.40
2022-12-23T08:47:31.375Z,5.44
2022-12-23T08:50:04.007Z,5.46
2022-12-23T08:52:36.489Z,5.49
2022-12-23T08:55:10.257Z,5.52
2022-12-23T08:57:42.712Z,5.58
2022-12-23T09:00:16.389Z,5.64
2022-12-23T09:02:49.003Z,5.74
2022-12-23T09:05:21.602Z,5.85
2022-12-23T09:07:54.332Z,5.95
2022-12-23T09:10:28.092Z,6.06
2022-12-23T09:13:00.541Z,6.15
2022-12-23T09:15:33.112Z,6.23
2022-12-23T09:18:05.617Z,6.33
2022-12-23T09:20:38.385Z,6.36
2022-12-23T09:23:10.923Z,6.33
2022-12-23T09:25:43.446Z,6.34
2022-12-23T09:28:15.924Z,6.36
2022-12-23T09:30:48.481Z,6.36
2022-12-23T09:33:21.045Z,6.41
2022-12-23T09:35:53.575Z,6.43
2022-12-23T09:38:26.044Z,6.43
2022-12-23T09:41:05.312Z,6.45
2022-12-23T09:43:49.941Z,6.48
2022-12-23T09:46:26.833Z,6.47
2022-12-23T09:49:05.463Z,6.44
2022-12-23T09:51:38.461Z,6.38
2022-12-23T09:54:17.799Z,6.35
2022-12-23T09:56:56.217Z,6.36
2022-12-23T09:59:47.708Z,6.35
2022-12-23T10:02:29.904Z,6.34
2022-12-23T10:05:15.822Z,6.39
2022-12-23T10:07:52.913Z,6.50
2022-12-23T10:10:35.983Z,6.59
2022-12-23T10:13:14.162Z,6.69
2022-12-23T10:15:47.456Z,6.74
2022-12-23T10:18:26.275Z,6.81
2022-12-23T10:21:02.929Z,6.83
2022-12-23T10:23:39.279Z,6.86
2022-12-23T10:26:19.761Z,6.88
2022-12-23T10:28:56.295Z,6.88
2022-12-23T10:31:40.924Z,6.86
2022-12-23T10:34:23.420Z,6.89
2022-12-23T10:37:08.746Z,6.94
2022-12-23T10:39:46.177Z,7.03
2022-12-23T10:42:29.201Z,7.14
2022-12-23T10:45:32.697Z,7.23
2022-12-23T10:48:23.070Z,7.33
2022-12-23T10:51:02.736Z,7.41
2022-12-23T10:53:47.100Z,7.45
2022-12-23T10:56:21.959Z,7.44
2022-12-23T10:58:58.111Z,7.38
2022-12-23T11:01:31.868Z,7.28
2022-12-23T11:04:10.296Z,7.15
2022-12-23T11:06:45.421Z,7.00
2022-12-23T11:09:21.593Z,6.87
2022-12-23T11:11:59.763Z,6.75
2022-12-23T11:14:41.658Z,6.61
2022-12-23T11:17:24.571Z,6.46
2022-12-23T11:20:13.581Z,6.32
2022-12-23T11:22:52.899Z,6.23
2022-12-23T11:25:38.149Z,6.18
2022-12-23T11:28:17.505Z,6.14
2022-12-23T11:30:58.365Z,6.14
2022-12-23T11:33:33.367Z,6.11
2022-12-23T11:36:10.026Z,6.06
2022-12-23T11:38:52.598Z,6.02
2022-12-23T11:41:27.986Z,5.97
2022-12-23T11:44:04.964Z,5.90
2022-12-23T11:46:38.030Z,5.87
2022-12-23T11:49:21.763Z,5.84
2022-12-23T11:52:03.643Z,5.80
2022-12-23T11:54:37.171Z,5.77
2022-12-23T11:57:17.760Z,5.79
2022-12-23T11:59:56.669Z,5.79
2022-12-23T12:02:37.654Z,5.80
2022-12-23T12:05:23.034Z,5.78
2022-12-23T12:07:59.828Z,5.71
2022-12-23T12:10:35.153Z,5.60
2022-12-23T12:13:17.468Z,5.51
2022-12-23T12:15:57.388Z,5.45
2022-12-23T12:18:30.744Z,5.40
2022-12-23T12:21:06.960Z,5.41
2022-12-23T12:23:45.454Z,5.41
2022-12-23T12:26:24.397Z,5.44
2022-12-23T12:29:02.535Z,5.46
2022-12-23T12:31:40.478Z,5.47
2022-12-23T12:34:29.534Z,5.47
2022-12-23T12:37:08.952Z,5.44
2022-12-23T12:39:47.279Z,5.42
2022-12-23T12:42:27.185Z,5.40
2022-12-23T12:45:06.798Z,5.38
2022-12-23T12:47:54.115Z,5.33
2022-12-23T12:50:31.284Z,5.30
2022-12-23T12:53:20.211Z,5.29
2022-12-23T12:55:58.410Z,5.22
2022-12-23T12:58:29.493Z,5.17
2022-12-23T13:01:14.792Z,5.11
2022-12-23T13:04:07.287Z,5.03
2022-12-23T13:06:49.539Z,4.96
2022-12-23T13:09:32.486Z,4.93
2022-12-23T13:12:16.240Z,4.91
2022-12-23T13:15:00.799Z,4.92
2022-12-23T13:17:39.262Z,4.96
2022-12-23T13:20:26.675Z,4.94
2022-12-23T13:23:34.424Z,4.94
2022-12-23T13:26:06.708Z,4.95
2022-12-23T13:28:51.271Z,4.96
2022-12-23T13:31:41.184Z,4.97
2022-12-23T13:34:30.014Z,4.99
2022-12-23T13:37:13.430Z,5.05
2022-12-23T13:39:57.302Z,5.08
2022-12-23T13:42:35.742Z,5.11
2022-12-23T13:45:15.566Z,5.13
2022-12-23T13:48:04.332Z,5.12
2022-12-23T13:50:43.634Z,5.07
2022-12-23T13:53:21.857Z,5.01
2022-12-23T13:56:12.351Z,4.93
2022-12-23T13:58:49.262Z,4.86
2022-12-23T14:01:44.760Z,4.79
2022-12-23T14:04:58.342Z,4.72
2022-12-23T14:07:33.431Z,4.69
2022-12-23T14:10:21.778Z,4.69
2022-12-23T14:13:00.441Z,4.71
2022-12-23T14:15:49.687Z,4.75
2022-12-23T14:18:46.521Z,4.80
2022-12-23T14:21:29.173Z,4.81
2022-12-23T14:24:26.405Z,4.80
2022-12-23T14:27:23.112Z,4.79
2022-12-23T14:30:09.030Z,4.77
2022-12-23T14:32:47.990Z,4.75
2022-12-23T14:35:25.281Z,4.70
2022-12-23T14:38:31.470Z,4.69
2022-12-23T14:41:24.225Z,4.69
2022-12-23T14:44:02.913Z,4.67
2022-12-23T14:46:58.600Z,4.68
2022-12-23T14:49:44.204Z,4.67
2022-12-23T14:52:48.107Z,4.67
2022-12-23T14:55:51.565Z,4.69
2022-12-23T14:58:33.722Z,4.67
2022-12-23T15:01:13.758Z,4.64
2022-12-23T15:03:57.556Z,4.64
2022-12-23T15:06:37.414Z,4.68
2022-12-23T15:09:20.015Z,4.73
2022-12-23T15:11:53.929Z,4.77
2022-12-23T15:14:35.346Z,4.79
2022-12-23T15:17:25.634Z,4.80
2022-12-23T15:20:09.391Z,4.82
2022-12-23T15:22:43.354Z,4.84
2022-12-23T15:25:27.703Z,4.85
2022-12-23T15:28:02.688Z,4.87
2022-12-23T15:30:47.343Z,4.88
2022-12-23T15:36:23.169Z,4.88
2022-12-23T15:38:55.946Z,4.89
2022-12-23T15:41:29.130Z,4.86
2022-12-23T15:44:02.489Z,4.86
2022-12-23T15:46:40.202Z,4.85
2022-12-23T15:49:14.613Z,4.85
2022-12-23T15:54:47.089Z,4.82
2022-12-23T15:57:23.989Z,4.81
2022-12-23T15:59:57.167Z,4.78
2022-12-23T16:05:32.014Z,4.75
2022-12-23T16:08:30.310Z,4.75
2022-12-23T16:11:13.981Z,4.75
2022-12-23T16:13:58.684Z,4.76
2022-12-23T16:16:38.793Z,4.76
2022-12-23T16:19:40.818Z,4.76
2022-12-23T16:22:29.595Z,4.77
2022-12-23T16:25:10.582Z,4.77
2022-12-23T16:27:45.328Z,4.78
2022-12-23T16:30:21.680Z,4.78
2022-12-23T16:32:56.682Z,4.79
2022-12-23T16:35:41.145Z,4.79
2022-12-23T16:38:17.389Z,4.80
2022-12-23T16:40:52.623Z,4.81
2022-12-23T16:43:26.110Z,4.81
2022-12-23T16:46:00.130Z,4.83
2022-12-23T16:48:36.631Z,4.83
2022-12-23T16:51:14.493Z,4.81
2022-12-23T16:53:47.296Z,4.78
2022-12-23T16:56:22.156Z,4.72
2022-12-23T16:58:54.859Z,4.67
2022-12-23T17:01:30.981Z,4.64
2022-12-23T17:04:03.911Z,4.62
2022-12-23T17:06:37.408Z,4.63
2022-12-23T17:09:11.765Z,4.63
2022-12-23T17:11:47.547Z,4.65
2022-12-23T17:14:22.081Z,4.68
2022-12-23T17:16:55.011Z,4.69
2022-12-23T17:19:29.346Z,4.72
2022-12-23T17:22:04.718Z,4.75
2022-12-23T17:24:37.585Z,4.79
2022-12-23T17:27:15.831Z,4.81
2022-12-23T17:29:48.370Z,4.82
2022-12-23T17:32:22.760Z,4.83
2022-12-23T17:34:56.979Z,4.82
2022-12-23T17:37:33.845Z,4.82
2022-12-23T17:40:07.537Z,4.84
2022-12-23T17:42:40.558Z,4.86
2022-12-23T17:45:25.335Z,4.86
2022-12-23T17:47:58.124Z,4.85
2022-12-23T17:50:31.563Z,4.85
2022-12-23T17:53:04.385Z,4.85
2022-12-23T17:55:37.224Z,4.86
2022-12-23T17:58:10.217Z,4.87
2022-12-23T18:00:43.148Z,4.87
2022-12-23T18:03:24.674Z,4.88
2022-12-23T18:06:02.046Z,4.89
2022-12-23T18:08:35.139Z,4.88
2022-12-23T18:11:08.682Z,4.85
2022-12-23T18:13:41.531Z,4.82
2022-12-23T18:16:15.333Z,4.76
2022-12-23T18:18:47.967Z,4.73
2022-12-23T18:21:24.903Z,4.72
2022-12-23T18:24:00.878Z,4.72
2022-12-23T18:26:33.520Z,4.72
2022-12-23T18:29:06.317Z,4.72
2022-12-23T18:31:50.026Z,4.73
2022-12-23T18:34:23.936Z,4.75
2022-12-23T18:36:56.446Z,4.77
2022-12-23T18:39:29.323Z,4.80
2022-12-23T18:42:02.449Z,4.81
2022-12-23T18:44:35.240Z,4.84
2022-12-23T18:47:08.141Z,4.86
2022-12-23T18:49:41.179Z,4.87
2022-12-23T18:52:15.077Z,4.87
2022-12-23T18:54:47.900Z,4.86
2022-12-23T18:57:23.356Z,4.86
2022-12-23T18:59:56.103Z,4.87
2022-12-23T19:02:29.380Z,4.88
2022-12-23T19:05:02.141Z,4.88
2022-12-23T19:07:34.751Z,4.90
2022-12-23T19:10:10.726Z,4.90
2022-12-23T19:12:43.411Z,4.91
2022-12-23T19:15:17.556Z,4.91
2022-12-23T19:17:51.125Z,4.93
2022-12-23T19:20:24.129Z,4.94
2022-12-23T19:22:57.010Z,4.96
2022-12-23T19:25:30.289Z,4.98
2022-12-23T19:28:03.261Z,5.00
2022-12-23T19:30:37.367Z,5.01
2022-12-23T19:33:10.325Z,5.05
2022-12-23T19:35:45.418Z,5.06
2022-12-23T19:38:18.288Z,5.08
2022-12-23T19:40:59.327Z,5.09
2022-12-23T19:43:32.419Z,5.09
2022-12-23T19:46:09.071Z,5.09
2022-12-23T19:48:41.867Z,5.08
2022-12-23T19:51:16.957Z,5.06
2022-12-23T19:53:53.080Z,5.04
2022-12-23T19:56:26.371Z,5.01
2022-12-23T19:58:58.988Z,4.99
2022-12-23T20:01:31.902Z,4.96
2022-12-23T20:04:04.706Z,4.93
2022-12-23T20:06:38.564Z,4.92
2022-12-23T20:09:13.412Z,4.89
2022-12-23T20:11:47.494Z,4.86
2022-12-23T20:14:21.952Z,4.83
2022-12-23T20:16:54.955Z,4.83
2022-12-23T20:19:28.069Z,4.82
2022-12-23T20:22:00.877Z,4.82
2022-12-23T20:24:37.200Z,4.84
2022-12-23T20:27:12.576Z,4.88
2022-12-23T20:29:46.060Z,4.92
2022-12-23T20:32:18.756Z,4.97
2022-12-23T20:34:51.498Z,5.01
2022-12-23T20:37:24.347Z,5.05
2022-12-23T20:39:57.135Z,5.06
2022-12-23T20:42:29.683Z,5.07
2022-12-23T20:45:02.335Z,5.09
2022-12-23T20:47:35.322Z,5.09
2022-12-23T20:50:11.014Z,5.10
2022-12-23T20:52:43.805Z,5.13
2022-12-23T20:55:16.685Z,5.17
2022-12-23T20:57:49.500Z,5.18
2022-12-23T21:00:22.922Z,5.20
2022-12-23T21:02:56.880Z,5.22
2022-12-23T21:05:29.951Z,5.24
2022-12-23T21:08:02.997Z,5.25
2022-12-23T21:10:36.426Z,5.26
2022-12-23T21:13:09.143Z,5.27
2022-12-23T21:15:41.916Z,5.29
2022-12-23T21:18:16.793Z,5.29
2022-12-23T21:20:49.340Z,5.25
2022-12-23T21:23:22.145Z,5.21
2022-12-23T21:26:04.854Z,5.16
2022-12-23T21:28:37.787Z,5.13
2022-12-23T21:31:11.884Z,5.12
2022-12-23T21:33:47.086Z,5.12
2022-12-23T21:36:21.799Z,5.12
2022-12-23T21:38:54.902Z,5.14
2022-12-23T21:41:30.038Z,5.15
2022-12-23T21:44:04.505Z,5.15
2022-12-23T21:46:37.174Z,5.17
2022-12-23T21:49:10.919Z,5.18
2022-12-23T21:51:43.988Z,5.21
2022-12-23T21:54:20.859Z,5.23
2022-12-23T21:56:53.497Z,5.26
2022-12-23T21:59:32.827Z,5.30
2022-12-23T22:02:08.162Z,5.32
2022-12-23T22:04:40.936Z,5.31
2022-12-23T22:07:13.586Z,5.29
2022-12-23T22:09:46.241Z,5.27
2022-12-23T22:12:18.990Z,5.23
2022-12-23T22:14:52.812Z,5.22
2022-12-23T22:17:25.761Z,5.21
2022-12-23T22:19:58.377Z,5.22
2022-12-23T22:22:30.874Z,5.24
2022-12-23T22:25:03.383Z,5.27
2022-12-23T22:27:35.871Z,5.29
2022-12-23T22:30:10.328Z,5.32
2022-12-23T22:32:43.051Z,5.35
2022-12-23T22:35:15.863Z,5.36
2022-12-23T22:37:48.339Z,5.33
2022-12-23T22:40:21.227Z,5.29
2022-12-23T22:42:54.314Z,5.27
2022-12-23T22:45:27.690Z,5.25
2022-12-23T22:48:00.442Z,5.24
2022-12-23T22:51:57.271Z,5.29
2022-12-23T22:54:30.151Z,5.24
2022-12-23T22:57:03.117Z,5.27
2022-12-23T22:59:36.048Z,5.29
2022-12-23T23:02:09.157Z,5.31
2022-12-23T23:04:42.758Z,5.35
2022-12-23T23:07:15.574Z,5.33
2022-12-23T23:09:48.816Z,5.28
2022-12-23T23:12:21.558Z,5.24
2022-12-23T23:14:54.429Z,5.19
2022-12-23T23:17:28.662Z,5.17
2022-12-23T23:20:01.507Z,5.16
2022-12-23T23:22:34.810Z,5.18
2022-12-23T23:25:08.788Z,5.20
2022-12-23T23:27:41.878Z,5.24
2022-12-23T23:30:15.610Z,5.26
2022-12-23T23:32:48.616Z,5.26
2022-12-23T23:35:22.672Z,5.23
2022-12-23T23:37:57.403Z,5.20
2022-12-23T23:40:30.509Z,5.17
2022-12-23T23:48:06.672Z,5.26
2022-12-23T23:50:39.607Z,5.24
2022-12-23T23:53:13.059Z,5.25
2022-12-23T23:55:46.124Z,5.27
2022-12-23T23:58:19.225Z,5.25
